Saint Paul Island, Canada
Current Conditions -  °F | °C
As of 2:00 PM on Thursday 29 Jan 2015 (Local Time) from CWZB Reporting Station
Scattered Clouds Scattered Clouds  
Wind Chill: 14°   Ceiling: Unl
Heat Index: 25°   Visibility: 9mi
Dew Point: 20°   Wind: 12mph
Humidity: 79%   Direction: 320°NW
Pressure: 30.14"   Gusts: NA
Location:  47.21°N, 60.14°W
Report Text: CWZB 291800Z AUTO 32010KT 9SM SCT014 SCT089 M04/M07 A3014 RMK SLP207 PK WND 32021/// T10381069 11033 21047 WSI/SWOB
Loading
Personal Weather Stations






























Interactive Weather Map New forecast layout! Learn more

10-Day Weather Forecast

Advertisements
Track Severe Weather on mobile